createdAt,value
2017-06-21T00:02:17.862Z,3.30
2017-06-21T00:04:45.350Z,3.03
2017-06-21T00:07:12.811Z,3.10
2017-06-21T00:09:40.272Z,3.10
2017-06-21T00:12:07.725Z,3.20
2017-06-21T00:14:35.302Z,2.72
2017-06-21T00:17:03.513Z,3.60
2017-06-21T00:19:30.946Z,3.30
2017-06-21T00:21:59.175Z,3.17
2017-06-21T00:24:26.605Z,3.00
2017-06-21T00:26:54.198Z,3.00
2017-06-21T00:29:21.668Z,3.50
2017-06-21T00:31:49.101Z,3.28
2017-06-21T00:34:16.534Z,3.20
2017-06-21T00:36:44.042Z,2.80
2017-06-21T00:39:11.584Z,3.00
2017-06-21T00:41:39.022Z,2.97
2017-06-21T00:44:06.478Z,2.58
2017-06-21T00:46:34.125Z,2.78
2017-06-21T00:49:01.603Z,3.20
2017-06-21T00:51:29.066Z,2.50
2017-06-21T00:53:56.515Z,2.93
2017-06-21T00:56:23.969Z,3.67
2017-06-21T00:58:51.426Z,2.92
2017-06-21T01:01:19.010Z,3.00
2017-06-21T01:03:46.478Z,2.85
2017-06-21T01:06:14.710Z,2.90
2017-06-21T01:08:42.158Z,3.10
2017-06-21T01:11:09.607Z,2.78
2017-06-21T01:13:37.061Z,3.00
2017-06-21T01:16:04.535Z,2.97
2017-06-21T01:18:31.990Z,3.00
2017-06-21T01:20:59.432Z,2.95
2017-06-21T01:23:26.942Z,2.50
2017-06-21T01:25:55.196Z,2.60
2017-06-21T01:28:22.642Z,2.80
2017-06-21T01:30:50.199Z,2.70
2017-06-21T01:33:17.658Z,2.42
2017-06-21T01:35:45.120Z,3.00
2017-06-21T01:38:12.567Z,2.60
2017-06-21T01:40:40.018Z,2.95
2017-06-21T01:43:07.490Z,3.20
2017-06-21T01:45:34.934Z,2.85
2017-06-21T01:48:02.420Z,2.90
2017-06-21T01:50:29.950Z,2.90
2017-06-21T01:52:57.589Z,2.90
2017-06-21T01:55:25.044Z,2.78
2017-06-21T01:57:52.468Z,3.10
2017-06-21T02:00:20.718Z,3.30
2017-06-21T02:02:48.175Z,3.45
2017-06-21T02:05:15.730Z,2.70
2017-06-21T02:07:43.167Z,3.40
2017-06-21T02:10:10.599Z,3.25
2017-06-21T02:12:38.081Z,2.95
2017-06-21T02:15:05.574Z,3.03
2017-06-21T02:17:32.987Z,3.20
2017-06-21T02:20:00.456Z,3.35
2017-06-21T02:22:27.894Z,3.40
2017-06-21T02:24:55.360Z,2.70
2017-06-21T02:27:22.817Z,3.00
2017-06-21T02:29:51.371Z,3.12
2017-06-21T02:32:18.955Z,3.08
2017-06-21T02:34:46.390Z,3.00
2017-06-21T02:37:13.871Z,3.10
2017-06-21T02:39:41.327Z,3.08
2017-06-21T02:42:08.789Z,3.10
2017-06-21T02:44:36.242Z,3.47
2017-06-21T02:47:03.798Z,3.10
2017-06-21T02:49:31.264Z,3.80
2017-06-21T02:51:58.706Z,3.33
2017-06-21T02:54:26.167Z,3.42
2017-06-21T02:56:53.618Z,3.00
2017-06-21T02:59:21.079Z,3.35
2017-06-21T03:01:48.758Z,3.40
2017-06-21T03:04:16.337Z,3.28
2017-06-21T03:06:43.871Z,3.20
2017-06-21T03:09:11.446Z,3.35
2017-06-21T03:11:38.878Z,3.30
2017-06-21T03:14:06.346Z,3.30
2017-06-21T03:16:33.884Z,3.40
2017-06-21T03:19:01.340Z,3.40
2017-06-21T03:21:29.010Z,3.03
2017-06-21T03:23:56.468Z,3.20
2017-06-21T03:26:23.935Z,3.35
2017-06-21T03:28:51.508Z,3.77
2017-06-21T03:31:19.116Z,3.10
2017-06-21T03:33:46.526Z,3.20
2017-06-21T03:36:14.772Z,3.25
2017-06-21T03:38:42.319Z,3.22
2017-06-21T03:41:09.794Z,3.10
2017-06-21T03:43:37.222Z,3.60
2017-06-21T03:46:04.697Z,3.10
2017-06-21T03:48:32.150Z,3.17
2017-06-21T03:50:59.595Z,3.00
2017-06-21T03:53:27.067Z,3.28
2017-06-21T03:55:54.524Z,3.12
2017-06-21T03:58:21.980Z,2.80
2017-06-21T04:00:49.510Z,2.85
2017-06-21T04:03:16.942Z,2.87
2017-06-21T04:05:44.388Z,3.22
2017-06-21T04:08:11.822Z,2.80
2017-06-21T04:10:40.166Z,2.87
2017-06-21T04:13:07.629Z,2.90
2017-06-21T04:15:35.069Z,3.00
2017-06-21T04:18:02.530Z,3.05
2017-06-21T04:20:30.002Z,3.00
2017-06-21T04:22:57.651Z,3.00
2017-06-21T04:25:25.326Z,2.60
2017-06-21T04:27:52.803Z,2.95
2017-06-21T04:30:20.226Z,3.10
2017-06-21T04:32:47.678Z,3.10
2017-06-21T04:35:15.151Z,2.90
2017-06-21T04:37:42.624Z,2.80
2017-06-21T04:40:10.086Z,2.80
2017-06-21T04:42:37.514Z,2.85
2017-06-21T04:45:05.014Z,2.90
2017-06-21T04:47:33.256Z,3.30
2017-06-21T04:50:00.695Z,2.72
2017-06-21T04:52:28.183Z,2.50
2017-06-21T04:54:55.621Z,2.55
2017-06-21T04:57:23.045Z,2.80
2017-06-21T04:59:50.542Z,2.83
2017-06-21T05:02:17.989Z,3.00
2017-06-21T05:04:45.453Z,2.87
2017-06-21T05:07:12.878Z,2.80
2017-06-21T05:09:40.459Z,2.75
2017-06-21T05:12:07.951Z,2.60
2017-06-21T05:14:35.479Z,2.50
2017-06-21T05:17:02.951Z,2.33
2017-06-21T05:19:30.431Z,2.50
2017-06-21T05:21:58.680Z,2.45
2017-06-21T05:24:26.127Z,2.60
2017-06-21T05:26:53.600Z,1.87
2017-06-21T05:29:21.167Z,2.30
2017-06-21T05:31:48.691Z,2.50
2017-06-21T05:34:16.131Z,2.92
2017-06-21T05:36:43.622Z,2.20
2017-06-21T05:39:11.059Z,2.70
2017-06-21T05:41:38.641Z,2.10
2017-06-21T05:44:06.088Z,2.35
2017-06-21T05:46:33.648Z,2.30
2017-06-21T05:49:01.176Z,2.58
2017-06-21T05:51:28.614Z,2.50
2017-06-21T05:53:56.190Z,2.28
2017-06-21T05:56:23.678Z,2.80
2017-06-21T05:58:51.320Z,2.37
2017-06-21T06:01:18.743Z,2.20
2017-06-21T06:03:46.269Z,2.30
2017-06-21T06:06:13.814Z,2.90
2017-06-21T06:08:41.443Z,2.90
2017-06-21T06:11:08.911Z,2.50
2017-06-21T06:13:36.350Z,2.12
2017-06-21T06:16:03.975Z,1.73
2017-06-21T06:18:32.195Z,2.47
2017-06-21T06:20:59.623Z,2.30
2017-06-21T06:23:27.086Z,2.20
2017-06-21T06:25:54.711Z,1.80
2017-06-21T06:28:22.142Z,2.90
2017-06-21T06:30:49.603Z,2.37
2017-06-21T06:33:17.045Z,2.05
2017-06-21T06:35:44.559Z,2.00
2017-06-21T06:38:12.972Z,2.30
2017-06-21T06:40:40.422Z,2.35
2017-06-21T06:43:07.991Z,1.90
2017-06-21T06:45:35.465Z,2.10
2017-06-21T06:48:02.931Z,2.15
2017-06-21T06:50:30.408Z,2.10
2017-06-21T06:52:57.839Z,2.20
2017-06-21T06:55:25.371Z,1.90
2017-06-21T06:57:52.859Z,2.33
2017-06-21T07:00:20.309Z,2.47
2017-06-21T07:02:47.781Z,2.20
2017-06-21T07:05:15.224Z,2.58
2017-06-21T07:07:42.753Z,2.30
2017-06-21T07:10:10.209Z,2.12
2017-06-21T07:12:37.769Z,1.98
2017-06-21T07:15:05.286Z,2.30
2017-06-21T07:17:33.498Z,2.20
2017-06-21T07:20:01.001Z,2.70
2017-06-21T07:22:28.563Z,2.55
2017-06-21T07:24:56.107Z,2.00
2017-06-21T07:27:23.579Z,1.90
2017-06-21T07:29:51.039Z,2.50
2017-06-21T07:32:19.234Z,2.40
2017-06-21T07:34:46.671Z,2.90
2017-06-21T07:37:14.895Z,2.30
2017-06-21T07:39:42.366Z,2.60
2017-06-21T07:42:09.822Z,2.30
2017-06-21T07:44:37.309Z,3.00
2017-06-21T07:47:04.762Z,2.45
2017-06-21T07:49:32.294Z,2.28
2017-06-21T07:51:59.937Z,2.50
2017-06-21T07:54:27.371Z,2.87
2017-06-21T07:56:54.949Z,2.80
2017-06-21T07:59:22.376Z,2.90
2017-06-21T08:01:49.965Z,3.00
2017-06-21T08:04:17.420Z,2.90
2017-06-21T08:06:44.860Z,2.90
2017-06-21T08:09:12.434Z,3.10
2017-06-21T08:11:39.919Z,3.20
2017-06-21T08:14:07.400Z,3.00
2017-06-21T08:16:34.951Z,3.80
2017-06-21T08:19:02.487Z,3.40
2017-06-21T08:21:29.940Z,3.70
2017-06-21T08:23:58.175Z,5.20
2017-06-21T08:26:26.383Z,5.90
2017-06-21T08:28:53.926Z,6.37
2017-06-21T08:31:21.352Z,5.62
2017-06-21T08:33:48.899Z,5.97
2017-06-21T08:36:16.427Z,4.75
2017-06-21T08:38:43.879Z,4.15
2017-06-21T08:41:11.423Z,2.22
2017-06-21T08:43:38.882Z,2.40
2017-06-21T08:46:06.331Z,2.97
2017-06-21T08:48:33.770Z,2.45
2017-06-21T08:51:01.255Z,2.08
2017-06-21T08:53:29.471Z,2.60
2017-06-21T08:55:56.967Z,2.30
2017-06-21T08:58:24.500Z,2.78
2017-06-21T09:00:51.968Z,2.10
2017-06-21T09:03:19.399Z,2.28
2017-06-21T09:05:46.900Z,2.58
2017-06-21T09:08:14.442Z,2.10
2017-06-21T09:10:41.911Z,2.20
2017-06-21T09:13:09.344Z,1.90
2017-06-21T09:15:36.849Z,1.80
2017-06-21T09:18:05.074Z,1.97
2017-06-21T09:20:32.609Z,2.03
2017-06-21T09:23:00.715Z,2.23
2017-06-21T09:25:28.175Z,2.20
2017-06-21T09:27:55.647Z,2.30
2017-06-21T09:30:23.894Z,2.30
2017-06-21T09:32:51.342Z,2.00
2017-06-21T09:35:18.795Z,2.10
2017-06-21T09:37:46.250Z,1.63
2017-06-21T09:40:14.258Z,2.25
2017-06-21T09:42:41.974Z,1.90
2017-06-21T09:45:09.461Z,2.10
2017-06-21T09:47:36.948Z,1.90
2017-06-21T09:50:05.147Z,2.95
2017-06-21T09:52:32.618Z,2.40
2017-06-21T09:55:00.189Z,2.20
2017-06-21T09:57:27.643Z,3.33
2017-06-21T09:59:55.071Z,2.67
2017-06-21T10:02:22.507Z,2.03
2017-06-21T10:04:49.946Z,2.70
2017-06-21T10:07:17.406Z,2.30
2017-06-21T10:09:44.847Z,2.80
2017-06-21T10:12:12.303Z,2.58
2017-06-21T10:14:40.526Z,2.90
2017-06-21T10:17:09.118Z,2.72
2017-06-21T10:19:36.578Z,2.40
2017-06-21T10:22:04.103Z,2.47
2017-06-21T10:24:31.559Z,2.40
2017-06-21T10:26:59.122Z,2.70
2017-06-21T10:29:26.554Z,3.20
2017-06-21T10:31:53.991Z,3.12
2017-06-21T10:34:21.428Z,4.13
2017-06-21T10:36:48.914Z,3.60
2017-06-21T10:39:16.391Z,4.35
2017-06-21T10:41:44.005Z,4.60
2017-06-21T10:44:11.515Z,3.83
2017-06-21T10:46:39.755Z,4.53
2017-06-21T10:49:07.228Z,4.40
2017-06-21T10:51:34.690Z,4.15
2017-06-21T10:54:02.312Z,4.40
2017-06-21T10:56:29.790Z,4.00
2017-06-21T10:58:57.260Z,3.70
2017-06-21T11:01:24.695Z,3.78
2017-06-21T11:03:52.215Z,3.33
2017-06-21T11:06:19.758Z,3.50
2017-06-21T11:08:48.100Z,3.00
2017-06-21T11:11:15.550Z,2.90
2017-06-21T11:13:43.031Z,3.20
2017-06-21T11:16:10.544Z,2.92
2017-06-21T11:18:38.019Z,2.50
2017-06-21T11:21:05.475Z,3.03
2017-06-21T11:23:32.971Z,2.85
2017-06-21T11:26:01.174Z,2.80
2017-06-21T11:28:28.774Z,2.37
2017-06-21T11:30:56.275Z,2.35
2017-06-21T11:33:23.891Z,2.90
2017-06-21T11:35:51.363Z,2.62
2017-06-21T11:38:19.495Z,2.50
2017-06-21T11:40:47.667Z,2.40
2017-06-21T11:43:15.155Z,2.53
2017-06-21T11:45:42.701Z,3.10
2017-06-21T11:48:10.179Z,2.60
2017-06-21T11:50:37.615Z,2.40
2017-06-21T11:53:05.185Z,1.80
2017-06-21T11:55:32.647Z,1.95
2017-06-21T11:58:00.108Z,2.20
2017-06-21T12:00:27.541Z,2.47
2017-06-21T12:02:55.028Z,2.10
2017-06-21T12:05:22.826Z,2.20
2017-06-21T12:07:51.077Z,2.20
2017-06-21T12:10:19.334Z,1.90
2017-06-21T12:12:46.886Z,2.20
2017-06-21T12:15:14.345Z,2.10
2017-06-21T12:17:41.799Z,2.50
2017-06-21T12:20:09.459Z,2.00
2017-06-21T12:22:37.007Z,2.35
2017-06-21T12:25:04.458Z,2.10
2017-06-21T12:27:31.914Z,2.00
2017-06-21T12:29:59.463Z,2.10
2017-06-21T12:32:26.929Z,2.30
2017-06-21T12:34:54.362Z,2.43
2017-06-21T12:37:21.962Z,2.20
2017-06-21T12:42:24.005Z,2.20
2017-06-21T12:44:51.530Z,2.10
2017-06-21T12:47:19.758Z,1.90
2017-06-21T12:49:47.231Z,1.87
2017-06-21T12:52:14.658Z,2.12
2017-06-21T12:54:42.101Z,2.00
2017-06-21T12:57:09.809Z,1.70
2017-06-21T12:59:37.343Z,2.00
2017-06-21T13:02:04.934Z,1.60
2017-06-21T13:04:32.483Z,2.10
2017-06-21T13:07:00.113Z,2.10
2017-06-21T13:09:27.618Z,1.98
2017-06-21T13:11:55.855Z,1.90
2017-06-21T13:14:23.291Z,1.70
2017-06-21T13:16:50.769Z,1.50
2017-06-21T13:19:18.214Z,1.70
2017-06-21T13:21:45.681Z,2.00
2017-06-21T13:24:13.125Z,1.42
2017-06-21T13:26:40.566Z,1.67
2017-06-21T13:29:08.029Z,1.40
2017-06-21T13:31:35.530Z,1.80
2017-06-21T13:34:03.144Z,1.50
2017-06-21T13:36:30.566Z,1.25
2017-06-21T13:38:58.907Z,1.50
2017-06-21T13:41:26.405Z,1.60
2017-06-21T13:43:53.907Z,1.75
2017-06-21T13:46:21.473Z,1.40
2017-06-21T13:48:49.010Z,1.30
2017-06-21T13:51:16.525Z,1.40
2017-06-21T13:53:43.982Z,1.48
2017-06-21T13:56:12.232Z,1.60
2017-06-21T13:58:39.663Z,2.00
2017-06-21T14:01:07.148Z,1.50
2017-06-21T14:03:34.587Z,1.40
2017-06-21T14:06:02.139Z,1.50
2017-06-21T14:08:29.650Z,1.50
2017-06-21T14:10:57.215Z,1.73
2017-06-21T14:13:24.852Z,1.30
2017-06-21T14:15:52.386Z,1.67
2017-06-21T14:18:19.822Z,1.45
2017-06-21T14:20:47.307Z,1.50
2017-06-21T14:23:14.753Z,1.30
2017-06-21T14:25:42.186Z,1.12
2017-06-21T14:28:09.658Z,1.48
2017-06-21T14:30:37.127Z,1.20
2017-06-21T14:33:04.599Z,0.90
2017-06-21T14:35:32.032Z,0.90
2017-06-21T14:37:59.475Z,1.40
2017-06-21T14:40:27.021Z,1.30
2017-06-21T14:42:54.446Z,1.20
2017-06-21T14:45:21.939Z,1.30
2017-06-21T14:47:49.370Z,1.25
2017-06-21T14:50:16.845Z,1.10
2017-06-21T14:52:44.262Z,1.23
2017-06-21T14:55:12.499Z,1.10
2017-06-21T14:57:39.979Z,1.40
2017-06-21T15:00:07.427Z,1.10
2017-06-21T15:02:34.946Z,1.30
2017-06-21T15:05:02.376Z,1.33
2017-06-21T15:07:29.830Z,1.55
2017-06-21T15:09:57.417Z,1.80
2017-06-21T15:12:25.334Z,1.40
2017-06-21T15:14:54.479Z,1.70
2017-06-21T15:17:22.039Z,1.47
2017-06-21T15:19:49.457Z,1.40
2017-06-21T15:22:17.664Z,1.30
2017-06-21T15:24:45.125Z,1.30
2017-06-21T15:27:12.603Z,1.30
2017-06-21T15:29:40.062Z,1.37
2017-06-21T15:32:07.543Z,1.40
2017-06-21T15:34:35.778Z,1.60
2017-06-21T15:37:03.326Z,1.60
2017-06-21T15:39:30.831Z,1.40
2017-06-21T15:41:58.342Z,1.42
2017-06-21T15:44:25.930Z,1.40
2017-06-21T15:46:53.421Z,1.23
2017-06-21T15:49:21.656Z,1.60
2017-06-21T15:51:49.096Z,1.83
2017-06-21T15:54:16.562Z,4.80
2017-06-21T15:56:43.988Z,2.65
2017-06-21T15:59:11.651Z,3.50
2017-06-21T16:01:39.063Z,4.57
2017-06-21T16:04:06.631Z,6.10
2017-06-21T16:06:34.155Z,3.40
2017-06-21T16:09:01.693Z,4.28
2017-06-21T16:11:29.104Z,2.90
2017-06-21T16:13:57.344Z,7.75
2017-06-21T16:16:24.801Z,4.00
2017-06-21T16:18:52.437Z,2.97
2017-06-21T16:21:19.952Z,1.92
2017-06-21T16:23:47.494Z,2.00
2017-06-21T16:26:14.928Z,2.80
2017-06-21T16:28:42.571Z,1.60
2017-06-21T16:31:10.126Z,2.37
2017-06-21T16:33:37.573Z,1.58
2017-06-21T16:36:05.015Z,1.60
2017-06-21T16:38:32.465Z,1.92
2017-06-21T16:41:00.753Z,1.42
2017-06-21T16:43:29.010Z,1.90
2017-06-21T16:45:56.527Z,1.60
2017-06-21T16:48:23.963Z,1.77
2017-06-21T16:50:51.397Z,1.70
2017-06-21T16:53:18.850Z,2.07
2017-06-21T16:55:46.386Z,1.62
2017-06-21T16:58:14.636Z,1.62
2017-06-21T17:00:42.080Z,1.20
2017-06-21T17:03:09.619Z,1.40
2017-06-21T17:05:37.086Z,1.80
2017-06-21T17:08:04.552Z,2.10
2017-06-21T17:10:32.020Z,1.60
2017-06-21T17:12:59.635Z,2.10
2017-06-21T17:15:27.075Z,2.10
2017-06-21T17:17:55.306Z,1.70
2017-06-21T17:20:22.751Z,1.70
2017-06-21T17:22:50.213Z,1.52
2017-06-21T17:25:17.700Z,1.42
2017-06-21T17:27:45.628Z,1.90
2017-06-21T17:30:13.073Z,1.60
2017-06-21T17:32:40.507Z,1.10
2017-06-21T17:35:07.981Z,1.70
2017-06-21T17:37:35.462Z,1.58
2017-06-21T17:40:02.918Z,1.85
2017-06-21T17:42:30.355Z,2.05
2017-06-21T17:44:57.898Z,1.80
2017-06-21T17:47:25.328Z,1.62
2017-06-21T17:49:53.703Z,2.50
2017-06-21T17:52:21.934Z,2.40
2017-06-21T17:54:49.406Z,1.70
2017-06-21T17:57:16.947Z,1.20
2017-06-21T17:59:44.493Z,1.98
2017-06-21T18:02:11.994Z,2.00
2017-06-21T18:04:39.423Z,1.55
2017-06-21T18:07:06.891Z,1.90
2017-06-21T18:09:34.338Z,1.40
2017-06-21T18:12:01.878Z,1.50
2017-06-21T18:14:29.311Z,1.73
2017-06-21T18:16:56.786Z,1.90
2017-06-21T18:19:24.288Z,1.80
2017-06-21T18:21:51.734Z,2.00
2017-06-21T18:24:19.190Z,1.70
2017-06-21T18:26:46.622Z,1.75
2017-06-21T18:29:14.331Z,2.17
2017-06-21T18:31:41.854Z,1.90
2017-06-21T18:34:09.389Z,1.73
2017-06-21T18:36:36.831Z,1.90
2017-06-21T18:39:04.329Z,1.83
2017-06-21T18:41:31.883Z,2.33
2017-06-21T18:43:59.340Z,2.20
2017-06-21T18:46:26.831Z,1.87
2017-06-21T18:48:54.302Z,1.73
2017-06-21T18:51:22.506Z,2.20
2017-06-21T18:53:50.005Z,2.20
2017-06-21T18:56:17.573Z,2.12
2017-06-21T18:58:45.044Z,2.20
2017-06-21T19:01:13.458Z,2.10
2017-06-21T19:03:41.050Z,2.30
2017-06-21T19:06:08.496Z,1.90
2017-06-21T19:08:35.932Z,2.30
2017-06-21T19:11:03.431Z,2.08
2017-06-21T19:13:30.862Z,2.33
2017-06-21T19:15:59.320Z,2.30
2017-06-21T19:18:26.811Z,2.20
2017-06-21T19:20:54.284Z,2.70
2017-06-21T19:23:21.731Z,2.65
2017-06-21T19:25:49.270Z,2.43
2017-06-21T19:28:16.699Z,2.67
2017-06-21T19:30:44.289Z,2.20
2017-06-21T19:33:11.767Z,2.30
2017-06-21T19:35:39.230Z,2.70
2017-06-21T19:38:06.674Z,2.10
2017-06-21T19:40:34.131Z,2.70
2017-06-21T19:43:01.676Z,3.30
2017-06-21T19:45:29.129Z,2.70
2017-06-21T19:47:56.592Z,2.55
2017-06-21T19:50:24.018Z,2.60
2017-06-21T19:52:51.470Z,2.60
2017-06-21T19:55:18.908Z,2.67
2017-06-21T19:57:47.331Z,2.58
2017-06-21T20:00:14.783Z,2.75
2017-06-21T20:02:42.242Z,3.10
2017-06-21T20:05:09.691Z,2.33
2017-06-21T20:07:37.147Z,2.80
2017-06-21T20:10:04.591Z,2.90
2017-06-21T20:12:32.064Z,2.80
2017-06-21T20:14:59.639Z,2.90
2017-06-21T20:17:27.111Z,3.20
2017-06-21T20:19:54.531Z,2.60
2017-06-21T20:22:22.094Z,3.20
2017-06-21T20:24:49.660Z,2.67
2017-06-21T20:27:17.134Z,2.70
2017-06-21T20:29:44.573Z,2.30
2017-06-21T20:32:12.056Z,1.90
2017-06-21T20:34:39.508Z,2.25
2017-06-21T20:37:06.958Z,2.10
2017-06-21T20:39:34.551Z,2.60
2017-06-21T20:42:02.071Z,2.70
2017-06-21T20:44:29.499Z,2.60
2017-06-21T20:46:56.930Z,2.28
2017-06-21T20:49:24.453Z,2.83
2017-06-21T20:51:51.863Z,2.40
2017-06-21T20:54:19.332Z,2.95
2017-06-21T20:56:46.770Z,3.08
2017-06-21T20:59:14.226Z,2.80
2017-06-21T21:01:41.707Z,2.50
2017-06-21T21:04:09.174Z,2.80
2017-06-21T21:06:36.715Z,3.40
2017-06-21T21:09:04.163Z,2.67
2017-06-21T21:11:31.630Z,2.97
2017-06-21T21:13:59.084Z,2.60
2017-06-21T21:16:26.567Z,3.03
2017-06-21T21:18:53.998Z,2.20
2017-06-21T21:21:21.453Z,2.50
2017-06-21T21:23:48.941Z,2.33
2017-06-21T21:26:16.468Z,2.10
2017-06-21T21:28:43.923Z,2.60
2017-06-21T21:31:11.374Z,2.80
2017-06-21T21:33:38.843Z,2.50
2017-06-21T21:36:06.286Z,4.90
2017-06-21T21:38:33.846Z,2.83
2017-06-21T21:41:01.434Z,2.90
2017-06-21T21:43:28.862Z,2.40
2017-06-21T21:45:56.299Z,2.72
2017-06-21T21:48:23.829Z,2.67
2017-06-21T21:50:51.280Z,2.90
2017-06-21T21:53:19.507Z,3.28
2017-06-21T21:55:46.952Z,4.20
2017-06-21T21:58:14.450Z,3.53
2017-06-21T22:00:41.875Z,3.20
2017-06-21T22:03:09.393Z,3.45
2017-06-21T22:05:36.852Z,3.17
2017-06-21T22:08:04.346Z,3.30
2017-06-21T22:10:31.806Z,2.90
2017-06-21T22:12:59.290Z,2.65
2017-06-21T22:15:26.816Z,3.17
2017-06-21T22:17:54.262Z,3.00
2017-06-21T22:20:21.738Z,3.70
2017-06-21T22:22:49.296Z,3.17
2017-06-21T22:25:16.744Z,2.90
2017-06-21T22:27:44.691Z,2.75
2017-06-21T22:30:12.180Z,2.87
2017-06-21T22:32:39.631Z,3.35
2017-06-21T22:35:07.067Z,3.60
2017-06-21T22:37:34.521Z,3.10
2017-06-21T22:40:01.965Z,3.43
2017-06-21T22:42:29.390Z,3.47
2017-06-21T22:44:57.620Z,3.50
2017-06-21T22:47:25.149Z,3.55
2017-06-21T22:49:52.574Z,4.00
2017-06-21T22:52:20.819Z,4.12
2017-06-21T22:54:48.339Z,3.70
2017-06-21T22:57:15.775Z,3.83
2017-06-21T22:59:43.982Z,3.50
2017-06-21T23:02:11.491Z,3.40
2017-06-21T23:04:39.043Z,3.63
2017-06-21T23:07:06.602Z,3.83
2017-06-21T23:09:34.034Z,3.70
2017-06-21T23:12:01.479Z,3.50
2017-06-21T23:14:28.925Z,4.20
2017-06-21T23:16:56.400Z,3.70
2017-06-21T23:19:23.855Z,4.20
2017-06-21T23:21:51.314Z,4.20
2017-06-21T23:24:18.782Z,4.20
2017-06-21T23:26:46.226Z,3.80
2017-06-21T23:29:13.678Z,3.78
2017-06-21T23:31:41.143Z,3.72
2017-06-21T23:34:08.694Z,4.50
2017-06-21T23:36:36.127Z,5.10
2017-06-21T23:39:03.571Z,3.70
2017-06-21T23:41:31.026Z,3.70
2017-06-21T23:43:58.459Z,4.40
2017-06-21T23:46:26.659Z,3.70
2017-06-21T23:48:54.170Z,4.55
2017-06-21T23:51:21.714Z,4.10
2017-06-21T23:53:49.192Z,4.27
2017-06-21T23:56:16.719Z,4.00
2017-06-21T23:58:44.170Z,4.15
